createdAt,value
2022-08-30T00:01:00.197Z,17.53
2022-08-30T00:03:27.894Z,17.52
2022-08-30T00:05:56.308Z,17.54
2022-08-30T00:08:22.953Z,17.50
2022-08-30T00:10:49.287Z,17.50
2022-08-30T00:13:15.763Z,17.52
2022-08-30T00:15:42.389Z,17.52
2022-08-30T00:18:09.071Z,17.52
2022-08-30T00:20:37.307Z,17.51
2022-08-30T00:23:04.086Z,17.52
2022-08-30T00:25:30.652Z,17.52
2022-08-30T00:27:57.007Z,17.52
2022-08-30T00:30:23.311Z,17.52
2022-08-30T00:32:49.883Z,17.52
2022-08-30T00:35:17.427Z,17.56
2022-08-30T00:37:45.104Z,17.56
2022-08-30T00:40:11.718Z,17.55
2022-08-30T00:42:38.812Z,17.56
2022-08-30T00:45:10.903Z,17.57
2022-08-30T00:47:37.232Z,17.57
2022-08-30T00:50:03.804Z,17.56
2022-08-30T00:52:30.118Z,17.56
2022-08-30T00:54:57.799Z,17.61
2022-08-30T00:57:24.124Z,17.61
2022-08-30T00:59:50.605Z,17.59
2022-08-30T01:02:18.125Z,17.60
2022-08-30T01:04:45.056Z,17.60
2022-08-30T01:07:11.530Z,17.61
2022-08-30T01:09:37.863Z,17.59
2022-08-30T01:12:05.892Z,17.55
2022-08-30T01:14:32.575Z,17.54
2022-08-30T01:16:59.123Z,17.45
2022-08-30T01:19:31.626Z,17.44
2022-08-30T01:22:00.793Z,17.41
2022-08-30T01:24:28.702Z,17.37
2022-08-30T01:26:55.200Z,17.35
2022-08-30T01:29:22.303Z,17.34
2022-08-30T01:31:48.652Z,17.34
2022-08-30T01:34:15.017Z,17.31
2022-08-30T01:36:45.088Z,17.29
2022-08-30T01:39:12.559Z,17.28
2022-08-30T01:41:40.279Z,17.28
2022-08-30T01:44:08.383Z,17.24
2022-08-30T01:46:36.346Z,17.22
2022-08-30T01:49:03.849Z,17.20
2022-08-30T01:51:30.352Z,17.21
2022-08-30T01:53:57.012Z,17.24
2022-08-30T01:56:23.419Z,17.23
2022-08-30T01:58:51.140Z,17.22
2022-08-30T02:01:18.462Z,17.20
2022-08-30T02:03:45.202Z,17.22
2022-08-30T02:06:15.778Z,17.21
2022-08-30T02:08:42.169Z,17.21
2022-08-30T02:11:09.120Z,17.18
2022-08-30T02:13:35.918Z,17.13
2022-08-30T02:16:03.568Z,17.11
2022-08-30T02:18:32.522Z,17.11
2022-08-30T02:20:58.840Z,17.06
2022-08-30T02:23:25.154Z,17.00
2022-08-30T02:25:51.467Z,16.97
2022-08-30T02:28:18.519Z,16.97
2022-08-30T02:30:45.140Z,16.95
2022-08-30T02:33:13.158Z,16.92
2022-08-30T02:35:39.584Z,16.90
2022-08-30T02:38:06.266Z,16.87
2022-08-30T02:40:32.721Z,16.88
2022-08-30T02:42:59.291Z,16.85
2022-08-30T02:45:25.727Z,16.84
2022-08-30T02:47:52.083Z,16.80
2022-08-30T02:50:19.936Z,16.78
2022-08-30T02:52:48.342Z,16.74
2022-08-30T02:55:14.835Z,16.73
2022-08-30T02:57:41.171Z,16.73
2022-08-30T03:00:10.363Z,16.70
2022-08-30T03:02:36.677Z,16.67
2022-08-30T03:05:03.282Z,16.65
2022-08-30T03:07:30.948Z,16.63
2022-08-30T03:09:57.267Z,16.61
2022-08-30T03:12:23.595Z,16.60
2022-08-30T03:14:49.915Z,16.58
2022-08-30T03:17:16.322Z,16.59
2022-08-30T03:19:43.172Z,16.60
2022-08-30T03:22:09.913Z,16.55
2022-08-30T03:24:37.775Z,16.55
2022-08-30T03:27:04.460Z,16.55
2022-08-30T03:29:30.802Z,16.52
2022-08-30T03:31:57.290Z,16.51
2022-08-30T03:34:24.559Z,16.48
2022-08-30T03:36:51.243Z,16.50
2022-08-30T03:39:17.577Z,16.48
2022-08-30T03:41:45.249Z,16.47
2022-08-30T03:44:12.271Z,16.46
2022-08-30T03:46:38.787Z,16.45
2022-08-30T03:49:05.284Z,16.43
2022-08-30T03:51:32.262Z,16.40
2022-08-30T03:53:58.603Z,16.41
2022-08-30T03:56:25.107Z,16.42
2022-08-30T03:58:52.795Z,16.41
2022-08-30T04:01:19.273Z,16.37
2022-08-30T04:03:45.660Z,16.37
2022-08-30T04:06:12.222Z,16.36
2022-08-30T04:08:38.759Z,16.33
2022-08-30T04:11:05.335Z,16.32
2022-08-30T04:13:31.700Z,16.30
2022-08-30T04:16:00.512Z,16.27
2022-08-30T04:18:26.943Z,16.25
2022-08-30T04:20:53.305Z,16.26
2022-08-30T04:23:19.910Z,16.24
2022-08-30T04:25:46.419Z,16.23
2022-08-30T04:28:13.026Z,16.19
2022-08-30T04:30:40.125Z,16.19
2022-08-30T04:33:07.783Z,16.17
2022-08-30T04:35:34.159Z,16.15
2022-08-30T04:38:00.476Z,16.15
2022-08-30T04:40:26.867Z,16.12
2022-08-30T04:42:53.194Z,16.11
2022-08-30T04:45:20.494Z,16.08
2022-08-30T04:47:47.061Z,16.02
2022-08-30T04:50:15.809Z,16.03
2022-08-30T04:52:42.486Z,16.03
2022-08-30T04:55:09.774Z,16.06
2022-08-30T04:57:36.958Z,16.05
2022-08-30T05:00:04.503Z,16.05
2022-08-30T05:02:30.864Z,16.05
2022-08-30T05:04:57.255Z,16.05
2022-08-30T05:07:24.981Z,16.03
2022-08-30T05:09:51.319Z,16.00
2022-08-30T05:12:17.618Z,15.99
2022-08-30T05:14:43.964Z,15.98
2022-08-30T05:17:12.091Z,16.00
2022-08-30T05:19:38.411Z,16.03
2022-08-30T05:22:04.802Z,16.01
2022-08-30T05:24:32.472Z,16.00
2022-08-30T05:26:58.796Z,15.99
2022-08-30T05:29:25.134Z,15.97
2022-08-30T05:31:51.515Z,15.97
2022-08-30T05:34:17.867Z,15.96
2022-08-30T05:36:44.175Z,15.96
2022-08-30T05:39:11.062Z,15.96
2022-08-30T05:41:39.313Z,15.99
2022-08-30T05:44:06.618Z,16.01
2022-08-30T05:49:05.454Z,16.04
2022-08-30T05:51:33.076Z,16.05
2022-08-30T05:53:59.780Z,16.04
2022-08-30T05:56:27.179Z,16.03
2022-08-30T05:58:55.025Z,16.04
2022-08-30T06:01:22.452Z,16.07
2022-08-30T06:03:48.771Z,16.06
2022-08-30T06:06:15.127Z,16.13
2022-08-30T06:08:41.850Z,16.18
2022-08-30T06:11:08.163Z,16.21
2022-08-30T06:13:34.491Z,16.25
2022-08-30T06:16:02.357Z,16.29
2022-08-30T06:18:28.972Z,16.35
2022-08-30T06:20:55.345Z,16.37
2022-08-30T06:23:21.662Z,16.45
2022-08-30T06:25:47.988Z,16.53
2022-08-30T06:28:14.740Z,16.60
2022-08-30T06:30:41.760Z,16.65
2022-08-30T06:33:09.455Z,16.71
2022-08-30T06:35:42.311Z,16.78
2022-08-30T06:38:18.694Z,16.86
2022-08-30T06:40:45.053Z,16.95
2022-08-30T06:43:11.404Z,17.02
2022-08-30T06:45:37.714Z,17.03
2022-08-30T06:48:04.225Z,17.06
2022-08-30T06:50:32.074Z,17.12
2022-08-30T06:52:58.399Z,17.18
2022-08-30T06:55:24.915Z,17.26
2022-08-30T06:57:51.226Z,17.32
2022-08-30T07:00:17.819Z,17.39
2022-08-30T07:02:44.232Z,17.50
2022-08-30T07:05:13.117Z,17.58
2022-08-30T07:07:43.162Z,17.64
2022-08-30T07:10:09.958Z,17.72
2022-08-30T07:12:36.570Z,17.75
2022-08-30T07:15:03.379Z,17.79
2022-08-30T07:17:34.041Z,17.85
2022-08-30T07:20:01.139Z,17.93
2022-08-30T07:22:27.447Z,17.99
2022-08-30T07:24:55.127Z,18.03
2022-08-30T07:27:21.454Z,18.07
2022-08-30T07:29:48.568Z,18.06
2022-08-30T07:32:14.954Z,18.08
2022-08-30T07:34:41.287Z,18.12
2022-08-30T07:37:07.637Z,18.16
2022-08-30T07:39:39.182Z,18.19
2022-08-30T07:42:12.318Z,18.26
2022-08-30T07:44:38.622Z,18.31
2022-08-30T07:47:05.105Z,18.38
2022-08-30T07:49:31.449Z,18.48
2022-08-30T07:51:57.779Z,18.62
2022-08-30T07:54:24.189Z,18.69
2022-08-30T07:56:50.499Z,18.75
2022-08-30T07:59:18.126Z,18.78
2022-08-30T08:01:44.493Z,18.83
2022-08-30T08:04:10.839Z,18.87
2022-08-30T08:06:39.351Z,18.89
2022-08-30T08:09:05.841Z,18.99
2022-08-30T08:11:33.826Z,19.10
2022-08-30T08:14:00.515Z,19.21
2022-08-30T08:16:29.298Z,19.28
2022-08-30T08:18:56.168Z,19.38
2022-08-30T08:21:23.435Z,19.41
2022-08-30T08:23:50.109Z,19.47
2022-08-30T08:26:16.592Z,19.53
2022-08-30T08:28:43.516Z,19.63
2022-08-30T08:31:13.817Z,19.74
2022-08-30T08:33:41.532Z,19.78
2022-08-30T08:36:09.449Z,19.89
2022-08-30T08:38:36.103Z,19.95
2022-08-30T08:41:09.090Z,20.05
2022-08-30T08:43:35.794Z,20.15
2022-08-30T08:46:04.803Z,20.25
2022-08-30T08:48:51.933Z,20.33
2022-08-30T08:51:23.651Z,20.43
2022-08-30T08:53:53.062Z,20.50
2022-08-30T08:56:19.492Z,20.56
2022-08-30T08:58:46.910Z,20.67
2022-08-30T09:01:14.222Z,20.68
2022-08-30T09:03:41.261Z,20.78
2022-08-30T09:06:12.968Z,20.85
2022-08-30T09:08:40.636Z,20.96
2022-08-30T09:11:07.835Z,21.01
2022-08-30T09:13:34.241Z,21.08
2022-08-30T09:16:00.603Z,21.12
2022-08-30T09:18:40.891Z,21.13
2022-08-30T09:21:09.180Z,21.23
2022-08-30T09:23:35.567Z,21.31
2022-08-30T09:26:05.142Z,21.45
2022-08-30T09:28:32.317Z,21.42
2022-08-30T09:31:00.627Z,21.50
2022-08-30T09:33:27.868Z,21.60
2022-08-30T09:35:54.335Z,21.74
2022-08-30T09:38:21.606Z,21.91
2022-08-30T09:40:48.991Z,22.06
2022-08-30T09:43:22.095Z,22.20
2022-08-30T09:45:49.995Z,22.25
2022-08-30T09:48:27.099Z,22.35
2022-08-30T09:50:58.111Z,22.47
2022-08-30T09:53:32.303Z,22.60
2022-08-30T09:56:03.573Z,22.70
2022-08-30T09:58:39.622Z,22.79
2022-08-30T10:01:10.639Z,22.89
2022-08-30T10:03:40.645Z,22.97
2022-08-30T10:06:10.019Z,23.08
2022-08-30T10:08:55.788Z,23.14
2022-08-30T10:11:27.268Z,23.12
2022-08-30T10:14:00.870Z,23.13
2022-08-30T10:16:35.549Z,23.11
2022-08-30T10:19:06.370Z,23.01
2022-08-30T10:21:35.706Z,22.96
2022-08-30T10:24:04.140Z,22.87
2022-08-30T10:26:32.904Z,22.92
2022-08-30T10:29:03.344Z,23.07
2022-08-30T10:31:33.311Z,23.18
2022-08-30T10:34:02.741Z,23.28
2022-08-30T10:36:31.810Z,23.43
2022-08-30T10:38:58.758Z,23.55
2022-08-30T10:41:29.072Z,23.63
2022-08-30T10:43:59.320Z,23.63
2022-08-30T10:46:29.812Z,23.72
2022-08-30T10:48:57.903Z,23.75
2022-08-30T10:51:27.590Z,23.63
2022-08-30T10:53:56.687Z,23.59
2022-08-30T10:56:24.307Z,23.62
2022-08-30T10:58:52.757Z,23.77
2022-08-30T11:01:28.467Z,23.85
2022-08-30T11:04:09.965Z,23.87
2022-08-30T11:06:45.780Z,23.91
2022-08-30T11:09:21.575Z,23.96
2022-08-30T11:11:57.691Z,24.03
2022-08-30T11:14:25.374Z,24.01
2022-08-30T11:16:53.710Z,24.04
2022-08-30T11:19:21.353Z,24.05
2022-08-30T11:21:49.745Z,24.07
2022-08-30T11:24:18.664Z,24.08
2022-08-30T11:26:52.127Z,24.24
2022-08-30T11:29:32.406Z,24.37
2022-08-30T11:31:59.546Z,24.36
2022-08-30T11:34:44.451Z,24.31
2022-08-30T11:37:29.973Z,24.43
2022-08-30T11:40:01.960Z,24.54
2022-08-30T11:42:33.225Z,24.52
2022-08-30T11:45:18.281Z,24.56
2022-08-30T11:47:46.614Z,24.61
2022-08-30T11:50:16.930Z,24.65
2022-08-30T11:52:56.210Z,24.66
2022-08-30T11:55:26.733Z,24.55
2022-08-30T11:57:57.134Z,24.45
2022-08-30T12:00:28.712Z,24.45
2022-08-30T12:02:59.115Z,24.46
2022-08-30T12:05:44.368Z,24.45
2022-08-30T12:08:31.986Z,24.46
2022-08-30T12:11:01.125Z,24.54
2022-08-30T12:13:42.429Z,24.57
2022-08-30T12:16:09.650Z,24.59
2022-08-30T12:18:42.620Z,24.57
2022-08-30T12:21:28.829Z,24.54
2022-08-30T12:24:03.547Z,24.56
2022-08-30T12:26:33.472Z,24.57
2022-08-30T12:29:08.664Z,24.57
2022-08-30T12:31:39.843Z,24.61
2022-08-30T12:34:06.477Z,24.70
2022-08-30T12:36:34.664Z,24.81
2022-08-30T12:39:05.678Z,24.91
2022-08-30T12:41:33.404Z,25.01
2022-08-30T12:43:59.946Z,25.00
2022-08-30T12:46:26.580Z,25.03
2022-08-30T12:48:53.122Z,25.07
2022-08-30T12:51:27.188Z,25.16
2022-08-30T12:53:53.663Z,25.17
2022-08-30T12:56:35.115Z,25.18
2022-08-30T12:59:08.642Z,25.17
2022-08-30T13:01:35.650Z,25.25
2022-08-30T13:04:11.242Z,25.42
2022-08-30T13:06:40.650Z,25.55
2022-08-30T13:09:07.218Z,25.61
2022-08-30T13:11:33.559Z,25.64
2022-08-30T13:14:14.756Z,25.58
2022-08-30T13:16:45.335Z,25.61
2022-08-30T13:19:27.704Z,25.63
2022-08-30T13:21:54.718Z,25.61
2022-08-30T13:24:25.225Z,25.66
2022-08-30T13:26:53.213Z,25.69
2022-08-30T13:29:21.239Z,25.68
2022-08-30T13:31:49.702Z,25.55
2022-08-30T13:34:16.107Z,25.53
2022-08-30T13:36:45.727Z,25.51
2022-08-30T13:39:12.090Z,25.48
2022-08-30T13:41:38.429Z,25.41
2022-08-30T13:44:11.358Z,25.42
2022-08-30T13:46:40.110Z,25.39
2022-08-30T13:52:19.425Z,25.42
2022-08-30T13:54:45.026Z,25.35
2022-08-30T13:57:11.357Z,25.36
2022-08-30T13:59:37.671Z,25.36
2022-08-30T14:02:08.030Z,25.33
2022-08-30T14:04:36.086Z,25.39
2022-08-30T14:07:20.594Z,25.31
2022-08-30T14:09:47.362Z,25.20
2022-08-30T14:12:13.691Z,25.20
2022-08-30T14:14:43.300Z,25.21
2022-08-30T14:17:10.589Z,25.20
2022-08-30T14:19:40.250Z,25.39
2022-08-30T14:22:06.607Z,25.39
2022-08-30T14:24:34.528Z,25.38
2022-08-30T14:27:01.039Z,25.41
2022-08-30T14:29:28.443Z,25.34
2022-08-30T14:31:55.062Z,25.15
2022-08-30T14:34:21.449Z,25.08
2022-08-30T14:36:49.140Z,25.03
2022-08-30T14:39:16.711Z,25.10
2022-08-30T14:41:44.321Z,25.23
2022-08-30T14:44:10.969Z,25.38
2022-08-30T14:46:37.416Z,25.39
2022-08-30T14:49:03.760Z,25.42
2022-08-30T14:51:32.228Z,25.43
2022-08-30T14:54:01.311Z,25.42
2022-08-30T14:56:27.635Z,25.43
2022-08-30T14:58:54.470Z,25.41
2022-08-30T15:01:20.929Z,25.52
2022-08-30T15:03:47.321Z,25.50
2022-08-30T15:06:14.191Z,25.46
2022-08-30T15:08:40.511Z,25.45
2022-08-30T15:11:09.279Z,25.30
2022-08-30T15:13:35.694Z,25.22
2022-08-30T15:16:02.273Z,25.14
2022-08-30T15:18:28.631Z,25.16
2022-08-30T15:20:56.171Z,25.25
2022-08-30T15:23:24.978Z,25.33
2022-08-30T15:25:51.408Z,25.43
2022-08-30T15:28:20.178Z,25.51
2022-08-30T15:30:46.487Z,25.45
2022-08-30T15:33:12.833Z,25.36
2022-08-30T15:35:39.163Z,25.20
2022-08-30T15:38:05.964Z,25.16
2022-08-30T15:40:32.601Z,25.15
2022-08-30T15:42:59.016Z,25.12
2022-08-30T15:45:27.083Z,25.09
2022-08-30T15:47:53.391Z,25.11
2022-08-30T15:50:19.710Z,25.12
2022-08-30T15:52:46.016Z,25.12
2022-08-30T15:55:12.338Z,25.10
2022-08-30T15:57:38.660Z,25.09
2022-08-30T16:00:06.503Z,25.07
2022-08-30T16:02:34.385Z,24.99
2022-08-30T16:05:01.600Z,24.97
2022-08-30T16:07:27.919Z,24.87
2022-08-30T16:09:54.229Z,24.80
2022-08-30T16:12:23.597Z,24.81
2022-08-30T16:14:50.318Z,24.87
2022-08-30T16:17:16.655Z,24.79
2022-08-30T16:19:45.923Z,24.79
2022-08-30T16:22:12.230Z,24.72
2022-08-30T16:24:38.586Z,24.67
2022-08-30T16:27:05.647Z,24.63
2022-08-30T16:29:35.291Z,24.58
2022-08-30T16:32:01.693Z,24.52
2022-08-30T16:34:28.017Z,24.53
2022-08-30T16:36:55.683Z,24.49
2022-08-30T16:39:22.334Z,24.48
2022-08-30T16:41:48.779Z,24.46
2022-08-30T16:44:16.048Z,24.46
2022-08-30T16:46:53.223Z,24.41
2022-08-30T16:49:20.175Z,24.47
2022-08-30T16:51:48.923Z,24.49
2022-08-30T16:54:17.565Z,24.37
2022-08-30T16:56:44.106Z,24.41
2022-08-30T16:59:11.716Z,24.38
2022-08-30T17:01:38.292Z,24.37
2022-08-30T17:04:05.898Z,24.31
2022-08-30T17:06:32.251Z,24.19
2022-08-30T17:08:58.708Z,24.11
2022-08-30T17:11:26.760Z,24.07
2022-08-30T17:13:53.419Z,24.02
2022-08-30T17:16:27.517Z,23.94
2022-08-30T17:18:54.571Z,23.92
2022-08-30T17:21:20.905Z,23.82
2022-08-30T17:23:48.258Z,23.70
2022-08-30T17:26:15.590Z,23.69
2022-08-30T17:28:43.429Z,23.61
2022-08-30T17:31:11.037Z,23.59
2022-08-30T17:33:37.500Z,23.59
2022-08-30T17:36:05.750Z,23.48
2022-08-30T17:38:32.089Z,23.49
2022-08-30T17:41:01.368Z,23.43
2022-08-30T17:43:28.352Z,23.41
2022-08-30T17:46:02.336Z,23.33
2022-08-30T17:48:29.649Z,23.26
2022-08-30T17:50:56.377Z,23.18
2022-08-30T17:53:22.966Z,23.16
2022-08-30T17:55:50.698Z,23.08
2022-08-30T17:58:17.155Z,23.04
2022-08-30T18:00:48.088Z,22.93
2022-08-30T18:03:18.105Z,22.87
2022-08-30T18:05:44.486Z,22.83
2022-08-30T18:08:13.556Z,22.79
2022-08-30T18:10:40.292Z,22.70
2022-08-30T18:13:06.664Z,22.65
2022-08-30T18:15:33.735Z,22.56
2022-08-30T18:18:00.156Z,22.51
2022-08-30T18:20:28.116Z,22.50
2022-08-30T18:22:57.808Z,22.42
2022-08-30T18:25:24.147Z,22.38
2022-08-30T18:27:58.802Z,22.35
2022-08-30T18:30:29.867Z,22.30
2022-08-30T18:32:59.995Z,22.20
2022-08-30T18:35:28.545Z,22.21
2022-08-30T18:37:54.848Z,22.09
2022-08-30T18:40:21.355Z,22.07
2022-08-30T18:42:47.736Z,22.03
2022-08-30T18:45:15.209Z,22.01
2022-08-30T18:48:01.101Z,21.96
2022-08-30T18:50:29.864Z,21.89
2022-08-30T18:52:57.122Z,21.86
2022-08-30T18:55:26.013Z,21.84
2022-08-30T18:57:52.449Z,21.78
2022-08-30T19:00:20.698Z,21.75
2022-08-30T19:02:47.145Z,21.72
2022-08-30T19:05:13.826Z,21.65
2022-08-30T19:07:41.659Z,21.61
2022-08-30T19:10:08.683Z,21.57
2022-08-30T19:12:39.070Z,21.56
2022-08-30T19:15:10.898Z,21.53
2022-08-30T19:17:38.077Z,21.51
2022-08-30T19:20:05.211Z,21.48
2022-08-30T19:23:03.430Z,21.41
2022-08-30T19:25:20.482Z,21.41
2022-08-30T19:27:47.220Z,21.36
2022-08-30T19:30:23.992Z,21.35
2022-08-30T19:32:55.271Z,21.33
2022-08-30T19:35:21.633Z,21.34
2022-08-30T19:37:47.942Z,21.26
2022-08-30T19:40:15.131Z,21.19
2022-08-30T19:42:45.969Z,21.21
2022-08-30T19:45:13.770Z,21.13
2022-08-30T19:47:40.099Z,21.06
2022-08-30T19:50:07.055Z,21.07
2022-08-30T19:52:35.238Z,21.02
2022-08-30T19:55:02.786Z,20.96
2022-08-30T19:57:29.289Z,20.95
2022-08-30T19:59:57.692Z,20.86
2022-08-30T20:02:24.067Z,20.80
2022-08-30T20:04:53.479Z,20.74
2022-08-30T20:07:24.618Z,20.69
2022-08-30T20:09:52.576Z,20.66
2022-08-30T20:12:19.144Z,20.63
2022-08-30T20:14:45.472Z,20.58
2022-08-30T20:17:13.238Z,20.53
2022-08-30T20:19:39.675Z,20.48
2022-08-30T20:22:08.280Z,20.49
2022-08-30T20:27:02.380Z,20.42
2022-08-30T20:29:28.749Z,20.30
2022-08-30T20:31:55.151Z,20.30
2022-08-30T20:34:22.811Z,20.21
2022-08-30T20:36:49.151Z,20.23
2022-08-30T20:39:17.531Z,20.18
2022-08-30T20:41:44.541Z,20.14
2022-08-30T20:44:11.918Z,20.11
2022-08-30T20:46:42.470Z,20.09
2022-08-30T20:49:08.983Z,20.04
2022-08-30T20:51:36.621Z,20.04
2022-08-30T20:54:06.135Z,19.97
2022-08-30T20:56:32.492Z,19.92
2022-08-30T20:58:58.795Z,19.91
2022-08-30T21:01:25.172Z,19.85
2022-08-30T21:03:51.518Z,19.83
2022-08-30T21:06:17.835Z,19.82
2022-08-30T21:08:45.501Z,19.77
2022-08-30T21:11:11.818Z,19.77
2022-08-30T21:13:38.147Z,19.72
2022-08-30T21:16:04.542Z,19.69
2022-08-30T21:18:31.743Z,19.63
2022-08-30T21:20:58.160Z,19.62
2022-08-30T21:23:24.488Z,19.64
2022-08-30T21:25:52.185Z,19.62
2022-08-30T21:28:19.502Z,19.57
2022-08-30T21:30:46.193Z,19.49
2022-08-30T21:33:12.534Z,19.54
2022-08-30T21:35:38.841Z,19.50
2022-08-30T21:38:05.176Z,19.48
2022-08-30T21:40:31.550Z,19.50
2022-08-30T21:43:03.695Z,19.46
2022-08-30T21:45:31.920Z,19.45
2022-08-30T21:47:58.239Z,19.39
2022-08-30T21:50:24.551Z,19.34
2022-08-30T21:52:50.881Z,19.33
2022-08-30T21:55:17.224Z,19.28
2022-08-30T21:57:43.543Z,19.26
2022-08-30T22:00:12.843Z,19.21
2022-08-30T22:02:39.146Z,19.22
2022-08-30T22:05:05.759Z,19.19
2022-08-30T22:07:32.073Z,19.20
2022-08-30T22:09:58.506Z,19.12
2022-08-30T22:12:24.826Z,19.11
2022-08-30T22:14:52.278Z,19.05
2022-08-30T22:17:19.957Z,19.00
2022-08-30T22:19:46.271Z,18.98
2022-08-30T22:22:12.607Z,19.00
2022-08-30T22:24:38.929Z,18.99
2022-08-30T22:27:05.326Z,19.00
2022-08-30T22:29:32.070Z,19.01
2022-08-30T22:31:58.470Z,19.00
2022-08-30T22:34:26.224Z,18.98
2022-08-30T22:36:52.533Z,18.95
2022-08-30T22:39:18.859Z,18.94
2022-08-30T22:41:45.207Z,18.91
2022-08-30T22:44:11.798Z,18.88
2022-08-30T22:46:38.291Z,18.88
2022-08-30T22:49:05.278Z,18.79
2022-08-30T22:51:33.520Z,18.71
2022-08-30T22:54:00.246Z,18.67
2022-08-30T22:56:26.911Z,18.63
2022-08-30T22:58:54.140Z,18.61
2022-08-30T23:01:21.392Z,18.53
2022-08-30T23:03:47.810Z,18.53
2022-08-30T23:06:14.144Z,18.49
2022-08-30T23:08:41.857Z,18.49
2022-08-30T23:11:08.174Z,18.46
2022-08-30T23:13:34.516Z,18.37
2022-08-30T23:16:01.065Z,18.36
2022-08-30T23:18:27.420Z,18.28
2022-08-30T23:20:53.722Z,18.32
2022-08-30T23:23:20.031Z,18.33
2022-08-30T23:25:47.675Z,18.31
2022-08-30T23:28:20.885Z,18.28
2022-08-30T23:30:47.347Z,18.22
2022-08-30T23:33:13.839Z,18.27
2022-08-30T23:35:40.211Z,18.26
2022-08-30T23:38:06.592Z,18.17
2022-08-30T23:40:32.951Z,18.19
2022-08-30T23:43:00.724Z,18.19
2022-08-30T23:45:27.149Z,18.17
2022-08-30T23:47:53.510Z,18.17
2022-08-30T23:50:19.819Z,18.15
2022-08-30T23:52:46.176Z,18.16
2022-08-30T23:55:12.515Z,18.10
2022-08-30T23:57:38.835Z,18.11
